Time;durP1;ratioP1;P1;durP2;ratioP2;P2;SDS_P1;SDS_P2;PMS_P1;PMS_P2;Temp;Humidity;BMP_temperature;BMP_pressure;BME280_temperature;BME280_humidity;BME280_pressure;Samples;Min_cycle;Max_cycle;Signal;HPM_P1;HPM_P2
2021/04/25 00:00:54;;;;;;;6.60;3.75;;;4.80;99.90;;;;;;4999991;28;20130;-76
2021/04/25 00:03:20;;;;;;;6.13;3.08;;;4.80;99.90;;;;;;4996266;28;20075;-76
2021/04/25 00:05:46;;;;;;;6.22;4.30;;;4.80;99.90;;;;;;4998481;28;20156;-75
2021/04/25 00:08:11;;;;;;;5.97;3.80;;;4.70;99.90;;;;;;4990473;28;20085;-76
2021/04/25 00:10:37;;;;;;;5.57;3.38;;;4.60;99.90;;;;;;4999892;28;20106;-76
2021/04/25 00:13:03;;;;;;;5.88;3.80;;;4.60;99.90;;;;;;4990194;28;20079;-76
2021/04/25 00:15:28;;;;;;;6.05;4.35;;;4.70;99.90;;;;;;4989196;28;20168;-76
2021/04/25 00:17:54;;;;;;;6.28;4.07;;;4.60;99.90;;;;;;4992433;28;20144;-76
2021/04/25 00:20:21;;;;;;;8.13;4.38;;;4.60;99.90;;;;;;4997096;28;20095;-76
2021/04/25 00:22:46;;;;;;;6.53;3.95;;;4.60;99.90;;;;;;5008170;28;20509;-76
2021/04/25 00:25:13;;;;;;;7.30;3.70;;;4.60;99.90;;;;;;5007936;28;20129;-75
2021/04/25 00:27:40;;;;;;;7.10;3.50;;;4.60;99.90;;;;;;4987808;28;20086;-76
2021/04/25 00:30:09;;;;;;;7.32;4.28;;;4.60;99.90;;;;;;4991281;28;20555;-76
2021/04/25 00:32:35;;;;;;;5.47;3.53;;;4.60;99.90;;;;;;4988913;28;20543;-76
2021/04/25 00:35:01;;;;;;;5.28;3.40;;;4.70;99.90;;;;;;4991593;28;20114;-76
2021/04/25 00:37:27;;;;;;;7.32;3.85;;;4.20;99.90;;;;;;5003599;28;20670;-76
2021/04/25 00:39:52;;;;;;;7.00;3.95;;;4.10;99.90;;;;;;4998656;28;20102;-76
2021/04/25 00:42:18;;;;;;;8.18;4.43;;;4.20;99.90;;;;;;5003221;28;20088;-76
2021/04/25 00:44:44;;;;;;;5.70;4.00;;;4.30;99.90;;;;;;4979609;28;20095;-76
2021/04/25 00:47:10;;;;;;;7.55;3.85;;;4.30;99.90;;;;;;4991395;28;20572;-76
2021/04/25 00:49:36;;;;;;;5.97;4.07;;;4.10;99.90;;;;;;4992081;28;20109;-76
2021/04/25 00:52:01;;;;;;;8.15;4.07;;;4.10;99.90;;;;;;5006469;28;20109;-76
2021/04/25 00:54:27;;;;;;;7.28;4.15;;;4.30;99.90;;;;;;5001778;28;20090;-76
2021/04/25 00:56:53;;;;;;;7.45;4.18;;;4.50;99.90;;;;;;4991237;28;20090;-76
2021/04/25 00:59:19;;;;;;;5.82;3.97;;;4.60;99.90;;;;;;5003956;28;20079;-76
2021/04/25 01:01:45;;;;;;;6.10;3.88;;;4.60;99.90;;;;;;5007380;28;20089;-76
2021/04/25 01:04:10;;;;;;;7.18;4.38;;;4.40;99.90;;;;;;5015102;22;20123;-74
2021/04/25 01:06:36;;;;;;;8.23;4.63;;;4.50;99.90;;;;;;4998559;28;20082;-75
2021/04/25 01:09:03;;;;;;;9.85;4.30;;;4.40;99.90;;;;;;4993913;28;20089;-75
2021/04/25 01:11:29;;;;;;;6.32;4.22;;;4.30;99.90;;;;;;4989891;28;20455;-74
2021/04/25 01:13:55;;;;;;;8.88;3.90;;;4.20;99.90;;;;;;4992654;28;20302;-75
2021/04/25 01:16:20;;;;;;;6.53;3.97;;;4.10;99.90;;;;;;4993681;28;20188;-74
2021/04/25 01:18:46;;;;;;;5.95;4.13;;;4.10;99.90;;;;;;4992789;28;20090;-74
2021/04/25 01:21:12;;;;;;;7.65;3.92;;;4.20;99.90;;;;;;4994790;28;20110;-74
2021/04/25 01:23:37;;;;;;;9.52;4.85;;;4.10;99.90;;;;;;4999444;28;20095;-75
2021/04/25 01:26:03;;;;;;;9.43;4.90;;;4.00;99.90;;;;;;4997275;28;20542;-75
2021/04/25 01:28:29;;;;;;;8.82;4.70;;;4.00;99.90;;;;;;4995373;28;20081;-74
2021/04/25 01:30:55;;;;;;;6.95;4.25;;;4.10;99.90;;;;;;4990221;28;20078;-74
2021/04/25 01:33:22;;;;;;;7.65;4.90;;;4.20;99.90;;;;;;4991210;28;20165;-75
2021/04/25 01:35:48;;;;;;;6.93;4.00;;;4.10;99.90;;;;;;4992162;28;20462;-75
2021/04/25 01:38:13;;;;;;;7.22;4.07;;;4.10;99.90;;;;;;4993056;28;20079;-75
2021/04/25 01:40:39;;;;;;;7.45;4.18;;;4.10;99.90;;;;;;4990882;28;20099;-75
2021/04/25 01:43:05;;;;;;;6.22;4.28;;;3.90;99.90;;;;;;4993340;28;20083;-76
2021/04/25 01:45:30;;;;;;;7.35;4.45;;;3.70;99.90;;;;;;4983461;28;20094;-76
2021/04/25 01:47:59;;;;;;;7.15;4.55;;;3.60;99.90;;;;;;4994121;28;20063;-76
2021/04/25 01:50:26;;;;;;;8.15;4.97;;;3.60;99.90;;;;;;4996674;28;20083;-76
2021/04/25 01:52:53;;;;;;;6.10;4.05;;;3.80;99.90;;;;;;4994861;28;20070;-76
2021/04/25 01:55:20;;;;;;;8.70;4.22;;;3.80;99.90;;;;;;4993510;28;20533;-76
2021/04/25 01:57:46;;;;;;;9.68;5.15;;;3.70;99.90;;;;;;5004503;28;20092;-76
2021/04/25 02:00:15;;;;;;;7.07;5.28;;;3.60;99.90;;;;;;5002975;28;20157;-76
2021/04/25 02:02:43;;;;;;;9.40;4.90;;;3.70;99.90;;;;;;5012249;28;20078;-76
2021/04/25 02:05:10;;;;;;;7.10;4.78;;;3.70;99.90;;;;;;5000608;28;20108;-76
2021/04/25 02:07:35;;;;;;;7.28;4.38;;;3.60;99.90;;;;;;4975157;28;20090;-76
2021/04/25 02:10:03;;;;;;;7.13;4.50;;;3.50;99.90;;;;;;4981445;28;20071;-76
2021/04/25 02:12:29;;;;;;;11.77;5.45;;;3.80;99.90;;;;;;4993580;28;20090;-76
2021/04/25 02:14:55;;;;;;;8.35;4.80;;;3.90;99.90;;;;;;4992871;28;20127;-76
2021/04/25 02:17:20;;;;;;;8.80;4.78;;;3.90;99.90;;;;;;4999362;28;20083;-76
2021/04/25 02:19:46;;;;;;;7.25;4.15;;;3.90;99.90;;;;;;5003879;28;20079;-76
2021/04/25 02:22:11;;;;;;;6.60;4.50;;;3.60;99.90;;;;;;5000551;28;20077;-76
2021/04/25 02:24:37;;;;;;;9.13;4.75;;;3.60;99.90;;;;;;4995162;28;20095;-75
2021/04/25 02:27:03;;;;;;;8.85;5.05;;;3.60;99.90;;;;;;4990866;28;20094;-75
2021/04/25 02:29:28;;;;;;;6.70;4.60;;;3.90;99.90;;;;;;4990191;28;20079;-75
2021/04/25 02:31:54;;;;;;;9.00;4.47;;;3.90;99.90;;;;;;4987843;28;20470;-75
2021/04/25 02:34:19;;;;;;;6.75;4.15;;;3.90;99.90;;;;;;4998429;28;20106;-76
2021/04/25 02:36:45;;;;;;;7.97;4.70;;;4.00;99.90;;;;;;4986770;28;20110;-76
2021/04/25 02:39:10;;;;;;;11.10;5.18;;;4.10;99.90;;;;;;4992239;28;20078;-77
2021/04/25 02:41:36;;;;;;;7.68;4.95;;;4.00;99.90;;;;;;4990321;28;20089;-75
2021/04/25 02:44:03;;;;;;;7.47;4.78;;;4.00;99.90;;;;;;4993036;28;20098;-75
2021/04/25 02:46:29;;;;;;;10.07;4.70;;;4.10;99.90;;;;;;4998969;28;20083;-76
2021/04/25 02:48:54;;;;;;;8.50;5.03;;;3.90;99.90;;;;;;4996674;28;20726;-76
2021/04/25 02:51:20;;;;;;;7.25;5.05;;;4.10;99.90;;;;;;4993140;28;20084;-75
2021/04/25 02:53:45;;;;;;;7.18;4.65;;;4.10;99.90;;;;;;5002621;28;20094;-76
2021/04/25 02:56:11;;;;;;;7.28;4.57;;;4.10;99.90;;;;;;4987341;28;20074;-75
2021/04/25 02:58:36;;;;;;;7.38;4.35;;;4.10;99.90;;;;;;4989806;28;20075;-75
2021/04/25 03:01:02;;;;;;;7.47;4.55;;;4.20;99.90;;;;;;4990765;28;20075;-74
2021/04/25 03:03:28;;;;;;;11.93;4.82;;;4.10;99.90;;;;;;4991578;28;20083;-74
2021/04/25 03:05:55;;;;;;;8.27;4.80;;;3.90;99.90;;;;;;4994596;28;20091;-74
2021/04/25 03:08:21;;;;;;;8.57;4.68;;;4.00;99.90;;;;;;4990607;28;20169;-75
2021/04/25 03:10:47;;;;;;;7.05;4.50;;;4.00;99.90;;;;;;4999711;28;20676;-75
2021/04/25 03:13:12;;;;;;;7.72;4.65;;;4.20;99.90;;;;;;5008837;28;20085;-75
2021/04/25 03:15:38;;;;;;;7.30;4.47;;;4.30;99.90;;;;;;5001210;28;20091;-75
2021/04/25 03:18:04;;;;;;;6.15;4.50;;;4.20;99.90;;;;;;4989768;28;20074;-75
2021/04/25 03:20:29;;;;;;;12.60;4.80;;;3.90;99.90;;;;;;4991121;28;20566;-76
2021/04/25 03:22:55;;;;;;;7.18;4.43;;;3.70;99.90;;;;;;5001366;28;20089;-76
2021/04/25 03:25:21;;;;;;;8.52;4.50;;;3.70;99.90;;;;;;5000873;28;20539;-76
2021/04/25 03:27:47;;;;;;;10.60;4.57;;;3.80;99.90;;;;;;4995629;28;20078;-76
2021/04/25 03:30:14;;;;;;;9.50;4.22;;;3.90;99.90;;;;;;4993230;28;20551;-76
2021/04/25 03:32:40;;;;;;;9.50;4.32;;;4.00;99.90;;;;;;4997350;28;20067;-75
2021/04/25 03:35:08;;;;;;;6.75;4.00;;;3.90;99.90;;;;;;4985062;28;20095;-75
2021/04/25 03:37:35;;;;;;;7.82;4.43;;;3.60;99.90;;;;;;4989893;28;20114;-75
2021/04/25 03:40:01;;;;;;;9.00;5.20;;;3.40;99.90;;;;;;4989862;28;20074;-75
2021/04/25 03:42:27;;;;;;;7.25;4.22;;;3.50;99.90;;;;;;4989718;28;20110;-75
2021/04/25 03:44:52;;;;;;;9.50;4.70;;;3.70;99.90;;;;;;4988739;28;20130;-74
2021/04/25 03:47:18;;;;;;;6.97;4.57;;;3.80;99.90;;;;;;4987226;28;20153;-74
2021/04/25 03:49:43;;;;;;;6.57;4.32;;;4.00;99.90;;;;;;4988975;28;20173;-74
2021/04/25 03:52:09;;;;;;;8.23;5.00;;;4.00;99.90;;;;;;4987341;28;20074;-74
2021/04/25 03:54:36;;;;;;;10.90;4.60;;;4.00;99.90;;;;;;4990392;28;20099;-74
2021/04/25 03:57:01;;;;;;;8.30;4.53;;;4.00;99.90;;;;;;4975787;28;20075;-74
2021/04/25 03:59:27;;;;;;;8.57;4.55;;;4.20;99.90;;;;;;4998059;28;20561;-75
2021/04/25 04:01:53;;;;;;;5.90;4.32;;;4.20;99.90;;;;;;4991661;28;20081;-74
2021/04/25 04:04:19;;;;;;;7.57;4.50;;;4.30;99.90;;;;;;4990071;28;20258;-74
2021/04/25 04:06:45;;;;;;;8.25;4.32;;;4.10;99.90;;;;;;4993107;28;20611;-74
2021/04/25 04:09:10;;;;;;;7.28;4.65;;;4.20;99.90;;;;;;5002340;28;20070;-75
2021/04/25 04:11:36;;;;;;;6.95;4.03;;;4.10;99.90;;;;;;4992273;28;20113;-74
2021/04/25 04:14:02;;;;;;;8.65;4.80;;;4.20;99.90;;;;;;4994137;28;20095;-74
2021/04/25 04:16:27;;;;;;;7.07;5.07;;;4.10;99.90;;;;;;4988565;28;20079;-74
2021/04/25 04:18:53;;;;;;;7.20;5.07;;;4.10;99.90;;;;;;4989803;28;20124;-74
2021/04/25 04:21:19;;;;;;;7.47;5.20;;;4.20;99.90;;;;;;4989106;28;20082;-74
2021/04/25 04:23:44;;;;;;;7.60;5.03;;;4.20;99.90;;;;;;4992204;28;20106;-74
2021/04/25 04:26:11;;;;;;;5.68;4.47;;;4.10;99.90;;;;;;4988325;28;20074;-74
2021/04/25 04:28:37;;;;;;;7.97;4.50;;;4.20;99.90;;;;;;4988530;28;20125;-74
2021/04/25 04:31:03;;;;;;;8.60;4.50;;;4.10;99.90;;;;;;4988961;28;20551;-74
2021/04/25 04:33:28;;;;;;;8.80;4.90;;;4.10;99.90;;;;;;4999062;28;20079;-75
2021/04/25 04:35:54;;;;;;;6.82;4.75;;;4.20;99.90;;;;;;5015209;28;20154;-75
2021/04/25 04:38:19;;;;;;;7.57;4.75;;;4.10;99.90;;;;;;4989410;28;20107;-74
2021/04/25 04:40:45;;;;;;;8.05;4.88;;;4.00;99.90;;;;;;4989215;28;20514;-74
2021/04/25 04:43:11;;;;;;;8.75;4.72;;;3.80;99.90;;;;;;5008256;28;20074;-75
2021/04/25 04:45:36;;;;;;;6.63;4.28;;;3.80;99.90;;;;;;4988894;28;20099;-74
2021/04/25 04:48:02;;;;;;;5.93;4.35;;;3.80;99.90;;;;;;4989048;28;20542;-74
2021/04/25 04:50:28;;;;;;;7.25;5.28;;;3.50;99.90;;;;;;4990881;28;20078;-74
2021/04/25 04:52:53;;;;;;;8.40;5.47;;;3.30;99.90;;;;;;5008878;28;20578;-74
2021/04/25 04:55:19;;;;;;;8.00;5.13;;;3.20;99.90;;;;;;4992203;28;20738;-74
2021/04/25 04:57:45;;;;;;;9.25;4.85;;;3.20;99.90;;;;;;4991314;28;20087;-74
2021/04/25 05:00:12;;;;;;;10.68;5.40;;;3.40;99.90;;;;;;4989370;28;20097;-76
2021/04/25 05:02:37;;;;;;;7.35;5.30;;;3.50;99.90;;;;;;4988370;28;20081;-75
2021/04/25 05:05:04;;;;;;;6.80;5.13;;;3.50;99.90;;;;;;5001426;28;20177;-75
2021/04/25 05:07:30;;;;;;;8.27;5.15;;;3.80;99.90;;;;;;4996815;28;20131;-74
2021/04/25 05:09:55;;;;;;;9.80;5.82;;;4.10;99.90;;;;;;4992090;28;20133;-74
2021/04/25 05:12:21;;;;;;;8.57;5.40;;;4.00;99.90;;;;;;4971058;28;20137;-74
2021/04/25 05:14:46;;;;;;;8.80;6.10;;;4.10;99.90;;;;;;4988761;28;20098;-74
2021/04/25 05:17:12;;;;;;;9.65;5.78;;;4.10;99.90;;;;;;4988593;28;20146;-75
2021/04/25 05:19:38;;;;;;;7.30;5.47;;;4.30;99.90;;;;;;4988117;28;20079;-74
2021/04/25 05:22:03;;;;;;;7.88;5.55;;;4.40;99.90;;;;;;4989291;28;20145;-75
2021/04/25 05:24:29;;;;;;;10.82;5.47;;;4.50;99.90;;;;;;4998481;28;20143;-74
2021/04/25 05:26:54;;;;;;;9.95;6.70;;;4.60;99.90;;;;;;4988652;28;20086;-75
2021/04/25 05:29:20;;;;;;;13.38;5.22;;;4.70;99.90;;;;;;4988317;28;20162;-74
2021/04/25 05:31:46;;;;;;;6.88;5.38;;;4.70;99.90;;;;;;4989325;28;20089;-74
2021/04/25 05:34:12;;;;;;;7.72;5.72;;;4.80;99.90;;;;;;4976001;28;20098;-75
2021/04/25 05:36:38;;;;;;;9.48;5.65;;;4.90;99.90;;;;;;4988157;28;20090;-75
2021/04/25 05:39:05;;;;;;;8.13;6.10;;;4.80;99.90;;;;;;4989622;28;20677;-77
2021/04/25 05:41:31;;;;;;;9.48;5.40;;;4.80;99.90;;;;;;4989217;28;21165;-75
2021/04/25 05:43:57;;;;;;;6.55;5.30;;;4.80;99.90;;;;;;4990651;28;20106;-75
2021/04/25 05:46:23;;;;;;;11.75;7.00;;;4.90;99.90;;;;;;4987930;28;20170;-74
2021/04/25 05:48:49;;;;;;;10.98;7.35;;;5.00;99.90;;;;;;4972287;28;20071;-75
2021/04/25 05:51:15;;;;;;;12.95;8.73;;;5.20;99.90;;;;;;4988728;28;20075;-74
2021/04/25 05:53:41;;;;;;;12.25;8.85;;;5.40;99.90;;;;;;4989199;28;20727;-75
2021/04/25 05:56:06;;;;;;;14.50;8.90;;;5.60;99.90;;;;;;4992063;28;20082;-75
2021/04/25 05:58:32;;;;;;;11.65;8.23;;;5.70;99.90;;;;;;4999321;28;20083;-75
2021/04/25 06:00:58;;;;;;;10.90;8.02;;;5.80;99.90;;;;;;4993753;28;20690;-75
2021/04/25 06:03:23;;;;;;;12.70;8.20;;;5.90;99.90;;;;;;4994531;28;20446;-75
2021/04/25 06:05:49;;;;;;;12.55;9.48;;;5.90;99.90;;;;;;4998007;28;20572;-75
2021/04/25 06:08:14;;;;;;;16.92;9.95;;;6.20;99.90;;;;;;5000091;28;20700;-76
2021/04/25 06:10:40;;;;;;;12.65;8.85;;;6.20;99.90;;;;;;5005368;28;20083;-75
2021/04/25 06:13:06;;;;;;;14.30;9.45;;;6.40;99.90;;;;;;4988403;28;20554;-76
2021/04/25 06:15:31;;;;;;;15.55;9.70;;;6.50;99.90;;;;;;4991921;28;20082;-76
2021/04/25 06:18:00;;;;;;;15.73;9.57;;;6.50;99.90;;;;;;4991587;28;20079;-76
2021/04/25 06:20:26;;;;;;;13.82;10.35;;;6.60;99.90;;;;;;4992022;28;20075;-76
2021/04/25 06:22:51;;;;;;;13.40;10.65;;;6.60;99.90;;;;;;5002177;28;20093;-76
2021/04/25 06:25:17;;;;;;;17.10;11.02;;;6.70;99.90;;;;;;5011390;28;20189;-76
2021/04/25 06:27:43;;;;;;;17.45;12.07;;;6.80;99.90;;;;;;5011056;28;20141;-75
2021/04/25 06:30:11;;;;;;;22.48;12.93;;;6.80;99.90;;;;;;4994405;28;20165;-75
2021/04/25 06:32:37;;;;;;;20.17;11.82;;;6.90;99.90;;;;;;4999786;28;20121;-76
2021/04/25 06:35:03;;;;;;;16.80;12.02;;;6.90;99.90;;;;;;4990018;28;20099;-76
2021/04/25 06:37:29;;;;;;;15.73;11.40;;;7.00;99.90;;;;;;4991049;28;20153;-76
2021/04/25 06:39:55;;;;;;;23.80;12.32;;;7.00;99.90;;;;;;4982432;28;20155;-76
2021/04/25 06:42:20;;;;;;;17.30;11.40;;;7.20;99.90;;;;;;4994974;28;20626;-76
2021/04/25 06:44:46;;;;;;;18.80;12.75;;;7.20;99.90;;;;;;4999798;28;20103;-76
2021/04/25 06:47:12;;;;;;;16.67;11.93;;;7.30;99.90;;;;;;5002695;28;20153;-76
2021/04/25 06:49:38;;;;;;;20.48;14.73;;;7.50;99.90;;;;;;5000240;28;20446;-76
2021/04/25 06:52:04;;;;;;;18.15;12.48;;;7.50;99.90;;;;;;4994194;28;20635;-76
2021/04/25 06:54:29;;;;;;;17.90;11.23;;;7.70;99.90;;;;;;4994622;28;20098;-75
2021/04/25 06:56:55;;;;;;;16.52;12.23;;;7.70;99.90;;;;;;5007001;28;20087;-75
2021/04/25 06:59:21;;;;;;;16.10;11.88;;;7.80;99.90;;;;;;5007939;28;20086;-75
2021/04/25 07:01:46;;;;;;;17.08;11.75;;;7.80;99.90;;;;;;5007698;28;20082;-75
2021/04/25 07:04:12;;;;;;;16.42;11.80;;;7.80;99.90;;;;;;5014154;28;20153;-76
2021/04/25 07:06:38;;;;;;;17.90;12.88;;;7.80;99.90;;;;;;5010057;28;20125;-75
2021/04/25 07:09:04;;;;;;;18.45;12.48;;;7.90;99.90;;;;;;5009270;28;20082;-75
2021/04/25 07:11:29;;;;;;;19.90;12.85;;;8.00;99.90;;;;;;4978043;28;20090;-75
2021/04/25 07:13:55;;;;;;;18.25;13.18;;;8.00;99.90;;;;;;4994730;28;20102;-75
2021/04/25 07:16:21;;;;;;;17.95;12.45;;;8.10;99.90;;;;;;4991583;28;20110;-75
2021/04/25 07:18:46;;;;;;;13.27;11.38;;;8.20;99.90;;;;;;4990992;28;20472;-81
2021/04/25 07:21:12;;;;;;;19.13;13.02;;;8.30;99.90;;;;;;4997626;28;20078;-76
2021/04/25 07:23:38;;;;;;;21.23;12.00;;;8.50;99.90;;;;;;5006745;28;20122;-79
2021/04/25 07:26:04;;;;;;;20.30;12.00;;;8.50;99.90;;;;;;4990139;28;20078;-77
2021/04/25 07:28:29;;;;;;;16.05;11.00;;;8.50;99.90;;;;;;4994825;28;20169;-80
2021/04/25 07:30:55;;;;;;;17.30;12.02;;;8.60;99.90;;;;;;4992703;28;20081;-79
2021/04/25 07:33:21;;;;;;;16.80;11.70;;;8.70;99.90;;;;;;4995260;28;20089;-79
2021/04/25 07:35:47;;;;;;;23.80;12.05;;;8.80;99.90;;;;;;4976451;28;20157;-77
2021/04/25 07:38:13;;;;;;;18.75;12.77;;;8.90;99.90;;;;;;4996219;28;20089;-78
2021/04/25 07:40:41;;;;;;;16.55;11.55;;;9.00;99.90;;;;;;5000714;28;20101;-76
2021/04/25 07:43:08;;;;;;;14.43;11.88;;;9.00;99.90;;;;;;5001700;28;20071;-76
2021/04/25 07:45:34;;;;;;;19.42;12.15;;;9.10;99.90;;;;;;4995133;28;20107;-76
2021/04/25 07:47:59;;;;;;;15.18;11.73;;;9.20;99.90;;;;;;4988614;28;20582;-76
2021/04/25 07:50:25;;;;;;;19.15;12.60;;;9.10;99.90;;;;;;4998857;28;20078;-76
2021/04/25 07:52:51;;;;;;;15.25;10.88;;;9.30;99.90;;;;;;4973904;28;20190;-76
2021/04/25 07:55:17;;;;;;;21.15;12.02;;;9.40;99.90;;;;;;4976463;28;20559;-76
2021/04/25 07:57:43;;;;;;;16.02;10.80;;;9.50;99.90;;;;;;4990903;28;20198;-76
2021/04/25 08:00:11;;;;;;;16.13;11.80;;;9.50;99.90;;;;;;4976180;28;20090;-76
2021/04/25 08:02:37;;;;;;;15.85;12.07;;;9.60;99.90;;;;;;4999294;28;20152;-78
2021/04/25 08:05:04;;;;;;;16.35;11.25;;;9.60;99.90;;;;;;5005445;28;21037;-78
2021/04/25 08:07:30;;;;;;;17.13;10.65;;;9.70;99.90;;;;;;5019275;28;20074;-81
2021/04/25 08:09:56;;;;;;;17.33;11.93;;;9.80;99.90;;;;;;5003557;28;20901;-76
2021/04/25 08:12:25;;;;;;;15.82;10.88;;;9.90;99.90;;;;;;5009229;28;20113;-76
2021/04/25 08:14:50;;;;;;;19.25;11.35;;;9.90;99.90;;;;;;4990605;28;20102;-76
2021/04/25 08:17:17;;;;;;;14.43;10.23;;;9.90;99.90;;;;;;5009576;28;20735;-79
2021/04/25 08:19:42;;;;;;;14.90;11.63;;;10.00;99.90;;;;;;4990166;28;20212;-75
2021/04/25 08:22:08;;;;;;;15.23;11.32;;;10.20;99.90;;;;;;4991254;28;20547;-77
2021/04/25 08:24:34;;;;;;;17.63;12.45;;;10.20;99.90;;;;;;4996724;28;20098;-78
2021/04/25 08:27:00;;;;;;;17.98;11.45;;;10.50;99.90;;;;;;4976581;28;20075;-85
2021/04/25 08:29:26;;;;;;;14.32;10.05;;;10.40;99.90;;;;;;4977359;28;20479;-82
2021/04/25 08:31:51;;;;;;;15.82;10.35;;;10.50;99.90;;;;;;4989948;28;20443;-79
2021/04/25 08:34:17;;;;;;;14.98;10.63;;;10.60;99.90;;;;;;4992212;28;20095;-76
2021/04/25 08:36:43;;;;;;;18.35;10.93;;;10.60;99.90;;;;;;4988848;28;20091;-76
2021/04/25 08:39:08;;;;;;;16.25;11.23;;;10.50;99.90;;;;;;4990885;28;20113;-76
2021/04/25 08:41:34;;;;;;;13.32;9.05;;;10.60;99.90;;;;;;4990903;28;20078;-76
2021/04/25 08:44:01;;;;;;;13.23;9.75;;;10.60;99.20;;;;;;4997779;28;20133;-76
2021/04/25 08:46:28;;;;;;;15.95;11.18;;;10.70;99.90;;;;;;4991550;28;20427;-76
2021/04/25 08:48:55;;;;;;;18.75;9.93;;;10.80;99.90;;;;;;4999333;28;20816;-75
2021/04/25 08:51:21;;;;;;;13.38;10.75;;;10.80;99.90;;;;;;4996068;28;20538;-76
2021/04/25 08:53:47;;;;;;;16.20;10.75;;;11.00;99.90;;;;;;4991192;28;20173;-76
2021/04/25 08:56:14;;;;;;;19.85;11.50;;;11.00;99.90;;;;;;4990581;28;20140;-78
2021/04/25 08:58:40;;;;;;;15.32;10.52;;;11.20;99.90;;;;;;4995472;28;20079;-76
2021/04/25 09:01:06;;;;;;;15.65;10.63;;;11.20;99.90;;;;;;4993172;28;20075;-78
2021/04/25 09:03:33;;;;;;;12.02;8.60;;;11.10;99.80;;;;;;4994810;28;20075;-77
2021/04/25 09:06:00;;;;;;;14.55;9.43;;;11.20;99.00;;;;;;5004320;28;20098;-81
2021/04/25 09:08:44;;;;;;;16.48;9.70;;;11.30;99.20;;;;;;5006856;28;20075;-78
2021/04/25 09:11:33;;;;;;;16.90;9.97;;;11.10;98.20;;;;;;5004864;28;20071;-77
2021/04/25 09:14:16;;;;;;;14.52;10.48;;;11.20;99.30;;;;;;5008121;28;20082;-85
2021/04/25 09:16:57;;;;;;;13.02;10.13;;;11.40;98.70;;;;;;5001383;28;20089;-83
2021/04/25 09:19:24;;;;;;;15.00;10.70;;;11.40;98.80;;;;;;4999510;28;20081;-81
2021/04/25 09:22:00;;;;;;;18.33;9.52;;;11.30;99.20;;;;;;4997351;28;20450;-82
2021/04/25 09:24:27;;;;;;;13.00;9.55;;;11.40;98.90;;;;;;5000726;28;20106;-81
2021/04/25 09:26:54;;;;;;;15.73;10.40;;;11.60;99.00;;;;;;4993754;28;20165;-83
2021/04/25 09:29:26;;;;;;;12.60;9.82;;;11.50;98.60;;;;;;4994036;28;20146;-81
2021/04/25 09:31:53;;;;;;;14.45;8.73;;;11.60;99.00;;;;;;4989982;28;20435;-82
2021/04/25 09:34:28;;;;;;;16.98;10.55;;;11.60;98.40;;;;;;5003001;28;20466;-84
2021/04/25 09:36:55;;;;;;;13.13;8.70;;;11.80;97.90;;;;;;5004952;28;20073;-85
2021/04/25 09:39:21;;;;;;;15.68;9.90;;;11.80;97.60;;;;;;4989846;28;20087;-84
2021/04/25 09:41:48;;;;;;;11.70;8.57;;;11.80;97.30;;;;;;4993961;28;20078;-83
2021/04/25 09:44:47;;;;;;;15.63;9.32;;;11.90;97.50;;;;;;4988466;28;20214;-83
2021/04/25 09:47:12;;;;;;;11.93;8.43;;;11.90;98.60;;;;;;4950646;28;20106;-81
2021/04/25 09:49:43;;;;;;;14.30;9.85;;;12.10;98.10;;;;;;4993799;28;20126;-82
2021/04/25 09:52:14;;;;;;;19.27;10.05;;;12.20;97.40;;;;;;4987396;28;20078;-82
2021/04/25 09:54:40;;;;;;;12.88;9.68;;;12.00;97.40;;;;;;4999078;28;20100;-81
2021/04/25 09:57:07;;;;;;;14.27;8.85;;;12.00;98.00;;;;;;4997332;28;20542;-82
2021/04/25 09:59:59;;;;;;;13.23;8.60;;;12.10;97.50;;;;;;4996560;28;20170;-83
2021/04/25 10:02:25;;;;;;;17.95;9.82;;;12.30;97.10;;;;;;4997661;28;20123;-78
2021/04/25 10:04:51;;;;;;;14.65;9.38;;;12.40;96.60;;;;;;4982719;28;20125;-79
2021/04/25 10:07:17;;;;;;;14.25;10.50;;;12.40;97.10;;;;;;4985925;28;20514;-80
2021/04/25 10:09:42;;;;;;;16.45;10.25;;;12.30;97.00;;;;;;4997147;28;20118;-79
2021/04/25 10:12:08;;;;;;;14.43;9.60;;;12.40;97.40;;;;;;5000676;28;20074;-78
2021/04/25 10:14:35;;;;;;;14.00;9.13;;;12.40;97.50;;;;;;5002082;28;20095;-82
2021/04/25 10:17:02;;;;;;;13.60;9.57;;;12.30;97.50;;;;;;4996901;28;20153;-79
2021/04/25 10:19:28;;;;;;;14.70;8.93;;;12.60;98.70;;;;;;4995028;28;20074;-79
2021/04/25 10:21:55;;;;;;;15.68;9.50;;;12.70;97.50;;;;;;4983618;28;20081;-76
2021/04/25 10:24:22;;;;;;;16.98;10.73;;;12.70;96.30;;;;;;5008916;28;20631;-78
2021/04/25 10:27:27;;;;;;;16.15;10.85;;;12.60;96.20;;;;;;5002963;28;20449;-76
2021/04/25 10:29:57;;;;;;;15.63;9.45;;;12.40;96.90;;;;;;4968958;28;20506;-77
2021/04/25 10:32:23;;;;;;;13.82;7.93;;;12.40;96.80;;;;;;4966318;28;20088;-77
2021/04/25 10:35:09;;;;;;;14.77;8.38;;;12.50;97.50;;;;;;4976672;28;20118;-78
2021/04/25 10:37:39;;;;;;;12.70;8.35;;;12.60;96.10;;;;;;5001941;28;20161;-78
2021/04/25 10:40:45;;;;;;;11.30;7.85;;;12.80;95.60;;;;;;4989796;28;20137;-78
2021/04/25 10:43:11;;;;;;;11.60;7.60;;;12.90;95.50;;;;;;4963729;28;20086;-78
2021/04/25 10:45:57;;;;;;;9.48;7.78;;;13.00;94.50;;;;;;4988007;28;20105;-78
2021/04/25 10:48:25;;;;;;;18.00;10.23;;;13.00;95.50;;;;;;5004558;28;20077;-78
2021/04/25 10:50:56;;;;;;;12.75;8.55;;;13.00;94.50;;;;;;4996482;28;20158;-78
2021/04/25 10:53:25;;;;;;;15.65;8.70;;;13.00;94.30;;;;;;4979194;28;20067;-78
2021/04/25 10:56:13;;;;;;;12.85;7.80;;;12.80;93.70;;;;;;4994812;28;20116;-78
2021/04/25 10:58:46;;;;;;;11.13;7.53;;;12.80;94.30;;;;;;4989795;28;20569;-77
2021/04/25 11:01:37;;;;;;;15.13;7.95;;;12.90;93.60;;;;;;4976906;28;20075;-75
2021/04/25 11:04:02;;;;;;;15.48;8.70;;;12.80;93.70;;;;;;5000811;28;20118;-78
2021/04/25 11:06:28;;;;;;;15.07;8.10;;;12.80;93.70;;;;;;4999208;28;20487;-76
2021/04/25 11:08:55;;;;;;;12.40;7.60;;;12.90;94.20;;;;;;5004172;28;20103;-76
2021/04/25 11:11:37;;;;;;;13.45;8.23;;;13.10;93.00;;;;;;5006704;28;20086;-76
2021/04/25 11:14:05;;;;;;;12.93;7.90;;;13.20;92.40;;;;;;5004358;28;20093;-76
2021/04/25 11:16:35;;;;;;;13.57;8.05;;;13.20;92.60;;;;;;4990961;28;20074;-76
2021/04/25 11:19:12;;;;;;;12.40;8.20;;;13.10;92.20;;;;;;5004427;28;20074;-76
2021/04/25 11:21:50;;;;;;;12.65;8.30;;;13.00;92.30;;;;;;5007119;28;20070;-77
2021/04/25 11:24:16;;;;;;;11.85;7.60;;;13.20;92.80;;;;;;4998402;28;20152;-76
2021/04/25 11:26:46;;;;;;;14.35;7.90;;;13.20;92.60;;;;;;4996307;28;20070;-75
2021/04/25 11:29:20;;;;;;;13.98;7.80;;;13.10;92.70;;;;;;4996595;28;20158;-77
2021/04/25 11:31:46;;;;;;;13.65;7.50;;;13.20;92.50;;;;;;5004816;28;20588;-77
2021/04/25 11:34:33;;;;;;;13.32;8.60;;;13.20;92.90;;;;;;5013011;28;20094;-76
2021/04/25 11:37:05;;;;;;;14.50;7.35;;;13.20;91.70;;;;;;4995435;28;20078;-77
2021/04/25 11:39:43;;;;;;;13.57;8.02;;;13.30;91.50;;;;;;4999272;28;20166;-78
2021/04/25 11:42:11;;;;;;;12.35;7.38;;;13.30;92.20;;;;;;5001922;28;20081;-78
2021/04/25 11:44:42;;;;;;;12.98;7.15;;;13.40;90.70;;;;;;4993837;28;20118;-81
2021/04/25 11:47:13;;;;;;;10.65;7.75;;;13.40;92.10;;;;;;4992871;28;20154;-77
2021/04/25 11:49:41;;;;;;;12.63;7.30;;;13.60;93.20;;;;;;5002106;28;20078;-77
2021/04/25 11:52:09;;;;;;;12.95;7.53;;;13.60;91.40;;;;;;5005766;28;20087;-77
2021/04/25 11:54:35;;;;;;;10.30;7.10;;;13.60;91.30;;;;;;4991433;28;20137;-75
2021/04/25 11:57:13;;;;;;;11.23;6.60;;;13.40;91.20;;;;;;4989718;28;20091;-75
2021/04/25 11:59:57;;;;;;;12.60;7.35;;;13.30;90.00;;;;;;4990213;28;20074;-75
2021/04/25 12:02:24;;;;;;;12.40;7.55;;;13.30;89.50;;;;;;4993951;28;20100;-75
2021/04/25 12:04:58;;;;;;;12.05;7.35;;;13.20;89.70;;;;;;4998715;28;20098;-75
2021/04/25 12:07:44;;;;;;;11.75;7.22;;;13.30;91.60;;;;;;4995014;28;20081;-75
2021/04/25 12:10:53;;;;;;;11.15;6.13;;;13.50;89.40;;;;;;4996091;28;20070;-75
2021/04/25 12:13:21;;;;;;;8.70;5.40;;;13.50;89.00;;;;;;4960554;28;20536;-75
2021/04/25 12:15:51;;;;;;;13.50;7.32;;;13.70;90.40;;;;;;4984235;28;20141;-75
2021/04/25 12:18:47;;;;;;;9.57;5.53;;;13.60;89.30;;;;;;4990881;28;20075;-76
2021/04/25 12:21:21;;;;;;;11.40;5.32;;;13.60;82.80;;;;;;4974587;28;20516;-75
2021/04/25 12:23:53;;;;;;;11.07;5.53;;;13.70;79.70;;;;;;5003645;28;20117;-75
2021/04/25 12:26:22;;;;;;;7.47;4.55;;;13.80;78.20;;;;;;4989856;28;20140;-75
2021/04/25 12:28:51;;;;;;;7.65;5.13;;;13.90;70.10;;;;;;4989859;28;20063;-75
2021/04/25 12:31:25;;;;;;;6.45;4.43;;;13.70;68.50;;;;;;4989696;28;20075;-75
2021/04/25 12:33:54;;;;;;;6.13;4.43;;;13.70;71.70;;;;;;4990584;28;20090;-75
2021/04/25 12:36:25;;;;;;;9.10;4.53;;;14.00;80.30;;;;;;4988085;28;20197;-75
2021/04/25 12:38:59;;;;;;;7.50;4.40;;;14.10;72.00;;;;;;4992524;28;20416;-74
2021/04/25 12:41:24;;;;;;;6.28;4.18;;;14.00;72.60;;;;;;4989831;28;20074;-74
2021/04/25 12:43:55;;;;;;;9.65;5.13;;;14.30;80.70;;;;;;4990319;28;20631;-74
2021/04/25 12:46:28;;;;;;;5.70;3.70;;;14.10;65.70;;;;;;4992663;28;20876;-78
2021/04/25 12:48:54;;;;;;;9.63;3.53;;;13.90;64.00;;;;;;5010190;28;20152;-79